• Join FlightAware (Why Join?)
  • Login
  • US Flag 
05:41PM EDT


 

Airport Tracker/Info


-or-


 

Live Flight TrackerFlight Track Log ✈ EJA922 ✈ 12-Feb-2014 ✈ KVRB - KSUS

Flight Track Log - Related Links

Times and Time Zones

All times are in EST time to prevent confusion due to time zone crossing. See the EJA922 flight status page for this flight to view local times or setup timezone preferences in your user account.

Time Position Orientation Groundspeed Altitude Reporting Facility
EST Latitude Longitude Course Direction KTS MPH feet Rate Location/Type
01:56PM 27.6631 -80.3619 319° Northwest 338 389 2,500  Level Miami Center
01:57PM 27.7247 -80.3122 36° Northeast 211 243 5,500 3,000 Climbing Miami Center
01:58PM 27.7842 -80.3586 325° Northwest 219 252 8,600 3,120 Climbing Miami Center
01:59PM 28.2137 -80.9970 319° Northwest  Level FlightAware Approximate
01:59PM 27.8325 -80.4283 308° West 267 307 11,800  Level Miami Center
02:00PM 27.8728 -80.4858 308° West 280 322 14,500 2,880 Climbing Miami Center
02:01PM 27.9294 -80.5653 309° West 295 339 17,600 2,700 Climbing Miami Center
02:02PM 27.9878 -80.6447 310° West 307 353 20,000 2,160 Climbing Miami Center
02:03PM 28.0481 -80.7292 309° West 326 375 22,000 1,500 Climbing Miami Center
02:04PM 28.1186 -80.8233 310° West 363 418 23,100 1,500 Climbing Miami Center
02:05PM 28.1889 -80.9222 309° West 388 447 25,000 1,920 Climbing Miami Center
02:06PM 28.2611 -81.0239 309° West 407 468 27,000 2,040 Climbing Miami Center
02:07PM 28.3311 -81.1256 308° West 407 468 29,100 1,860 Climbing Miami Center
02:08PM 28.4014 -81.2203 310° West 402 463 30,800 1,680 Climbing Miami Center
02:09PM 28.4692 -81.3172 309° West 402 463 32,500 1,500 Climbing Miami Center
02:09PM 28.5125 -81.3806 308° West 405 466 33,200 1,200 Climbing Jacksonville Center
02:10PM 28.5825 -81.4764 310° West 405 466 34,400 1,200 Climbing Jacksonville Center
02:11PM 28.6503 -81.5725 309° West 405 466 35,700 1,260 Climbing Jacksonville Center
02:12PM 28.7200 -81.6733 308° West 405 466 37,000 1,320 Climbing Jacksonville Center
02:13PM 28.7814 -81.7603 309° West 400 460 38,400 1,200 Climbing Jacksonville Center
02:14PM 28.8511 -81.8592 309° West 400 460 39,500 780 Climbing Jacksonville Center
02:15PM 28.9228 -81.9628 308° West 405 466 40,000 900 Climbing Jacksonville Center
02:16PM 28.9944 -82.0664 308° West 417 480 41,400 1,500 Climbing Jacksonville Center
02:17PM 29.0642 -82.1681 308° West 417 480 43,000 780 Climbing Jacksonville Center
02:18PM 29.1356 -82.2697 309° West 417 480 43,000  Level Jacksonville Center
02:19PM 29.2069 -82.3717 309° West 412 474 43,000  Level Jacksonville Center
02:20PM 29.2783 -82.4758 308° West 417 480 43,000  Level Jacksonville Center
02:21PM 29.3497 -82.5806 308° West 417 480 43,000  Level Jacksonville Center
02:22PM 29.4186 -82.6828 308° West 417 480 43,000 -60 Level Jacksonville Center
02:23PM 29.4919 -82.7875 309° West 417 480 42,900  Descending Jacksonville Center
02:24PM 29.5608 -82.8903 308° West 422 486 43,000  Climbing Jacksonville Center
02:25PM 29.6317 -82.9906 309° West 414 476 43,000  Level Jacksonville Center
02:26PM 29.7172 -83.0839 317° Northwest 414 476 43,000  Level Jacksonville Center
02:27PM 29.8153 -83.1703 323° Northwest 426 490 43,000  Level Jacksonville Center
02:28PM 29.9172 -83.2664 321° Northwest 436 502 43,000  Level Jacksonville Center
02:29PM 30.0131 -83.3508 323° Northwest 436 502 43,000  Level Jacksonville Center
02:30PM 30.1067 -83.4353 322° Northwest 431 496 43,000  Level Jacksonville Center
02:31PM 30.2022 -83.5247 321° Northwest 431 496 43,000  Level Jacksonville Center
02:32PM 30.2978 -83.6142 321° Northwest 431 496 43,000  Level Jacksonville Center
02:33PM 30.3933 -83.7017 322° Northwest 436 502 43,000 -60 Level Jacksonville Center
02:34PM 30.4889 -83.7917 321° Northwest 441 507 42,900  Descending Jacksonville Center
02:35PM 30.5864 -83.8844 321° Northwest 441 507 43,000  Climbing Jacksonville Center
02:36PM 30.6836 -83.9747 321° Northwest 447 514 43,000  Level Jacksonville Center
02:37PM 30.7811 -84.0678 321° Northwest 447 514 43,000  Level Jacksonville Center
02:38PM 30.8783 -84.1586 321° Northwest 447 514 43,000  Level Jacksonville Center
02:39PM 30.9756 -84.2519 321° Northwest 452 520 43,000  Level Jacksonville Center
02:40PM 31.0789 -84.3481 321° Northwest 452 520 43,000  Level Jacksonville Center
02:41PM 31.1800 -84.4442 321° Northwest 457 526 43,000  Level Jacksonville Center
02:42PM 31.2789 -84.5408 320° Northwest 462 532 43,000  Level Jacksonville Center
02:44PM 31.4817 -84.7328 321° Northwest 467 537 43,000  Level Atlanta Center
02:45PM 31.5814 -84.8311 320° Northwest 467 537 43,000  Level Atlanta Center
02:46PM 31.6850 -84.9272 322° Northwest 467 537 43,000  Level Atlanta Center
02:47PM 31.7864 -85.0258 320° Northwest 467 537 43,000  Level Atlanta Center
02:48PM 31.8858 -85.1250 320° Northwest 467 537 43,000  Level Atlanta Center
02:49PM 31.9914 -85.2242 321° Northwest 473 544 43,000  Level Atlanta Center
02:50PM 32.0906 -85.3233 320° Northwest 473 544 43,000  Level Atlanta Center
02:51PM 32.2000 -85.4256 322° Northwest 478 550 43,000  Level Atlanta Center
02:52PM 32.3033 -85.5281 320° Northwest 484 557 43,000  Level Atlanta Center
02:53PM 32.4083 -85.6306 321° Northwest 484 557 43,000  Level Atlanta Center
02:54PM 32.5114 -85.7333 320° Northwest 484 557 43,000  Level Atlanta Center
02:55PM 32.6186 -85.8367 321° Northwest 490 564 43,000  Level Atlanta Center
02:56PM 32.7153 -85.9325 320° Northwest 498 573 43,000  Level Atlanta Center
02:57PM 32.8200 -86.0386 320° Northwest 498 573 43,000  Level Atlanta Center
02:58PM 32.9267 -86.1450 320° Northwest 498 573 43,000  Level Atlanta Center
02:59PM 33.0314 -86.2514 320° Northwest 498 573 43,000  Level Atlanta Center
03:00PM 33.1378 -86.3583 320° Northwest 498 573 43,000  Level Atlanta Center
03:01PM 33.2422 -86.4656 319° Northwest 493 567 43,000  Level Atlanta Center
03:02PM 33.3569 -86.5806 320° Northwest 493 567 43,000  Level Atlanta Center
03:03PM 33.4611 -86.6881 319° Northwest 493 567 43,000  Level Atlanta Center
03:04PM 33.5650 -86.7961 319° Northwest 498 573 43,000  Level Atlanta Center
03:05PM 33.6775 -86.9044 321° Northwest 498 573 43,000  Level Atlanta Center
03:06PM 33.7983 -87.0011 326° Northwest 509 586 43,000  Level Atlanta Center
03:08PM 34.0300 -87.1842 327° Northwest 508 585 43,000  Level Memphis Center
03:09PM 34.1500 -87.2794 327° Northwest 508 585 43,000  Level Memphis Center
03:10PM 34.2703 -87.3750 327° Northwest 512 589 43,000  Level Memphis Center
03:11PM 34.3889 -87.4694 327° Northwest 508 585 43,000  Level Memphis Center
03:12PM 34.5067 -87.5631 327° Northwest 505 581 43,000  Level Memphis Center
03:13PM 34.6297 -87.6619 327° Northwest 503 579 43,000  Level Memphis Center
03:14PM 34.7461 -87.7558 326° Northwest 504 580 43,000  Level Memphis Center
03:15PM 34.8631 -87.8506 326° Northwest 505 581 43,000  Level Memphis Center
03:16PM 35.0008 -87.9628 326° Northwest 500 575 43,000  Level Memphis Center
03:17PM 35.1142 -88.0567 326° Northwest 495 570 43,000  Level Memphis Center
03:18PM 35.2300 -88.1500 327° Northwest 498 573 43,000  Level Memphis Center
03:19PM 35.3444 -88.2453 326° Northwest 499 574 43,000  Level Memphis Center
03:20PM 35.4675 -88.3464 326° Northwest 500 575 43,000  Level Memphis Center
03:21PM 35.5828 -88.4406 326° Northwest 497 572 43,000  Level Memphis Center
03:22PM 35.6975 -88.5367 326° Northwest 499 574 43,000  Level Memphis Center
03:24PM 35.8117 -88.6325 326° Northwest 498 573 43,000  Level Memphis Center
03:25PM 35.9247 -88.7269 326° Northwest 492 566 43,000  Level Memphis Center
03:26PM 36.0397 -88.8239 326° Northwest 497 572 43,000  Level Memphis Center
03:27PM 36.1756 -88.9381 326° Northwest 495 570 43,000 -60 Level Memphis Center
03:28PM 36.2894 -89.0344 326° Northwest 497 572 42,900 -660 Descending Memphis Center
03:29PM 36.4008 -89.1303 325° Northwest 495 570 41,700 -1,320 Descending Memphis Center
03:30PM 36.5081 -89.2211 326° Northwest 485 558 40,200 -1,500 Descending Memphis Center
03:31PM 36.6164 -89.3142 325° Northwest 482 555 38,700 -1,440 Descending Memphis Center
03:32PM 36.7525 -89.4297 326° Northwest 492 566 37,300 -1,140 Descending Memphis Center
03:33PM 36.8683 -89.5297 325° Northwest 502 578 36,400 -1,080 Descending Memphis Center
03:34PM 36.9881 -89.6333 325° Northwest 517 595 35,200 -1,560 Descending Memphis Center
03:35PM 37.1081 -89.7367 326° Northwest 523 602 33,200 -3,300 Descending Memphis Center
03:36PM 37.2156 -89.8322 325° Northwest 484 557 28,500 -4,140 Descending Memphis Center
03:37PM 37.3128 -89.9133 326° Northwest 429 494 25,300 -2,400 Descending Kansas City Center
03:38PM 37.4139 -90.0008 326° Northwest 437 503 23,900 -1,620 Descending Kansas City Center
03:39PM 37.5222 -90.0686 334° Northwest 438 504 22,000 -1,980 Descending Kansas City Center
03:40PM 37.6247 -90.1161 340° North 427 491 19,900 -2,340 Descending Kansas City Center
03:41PM 37.7550 -90.1786 339° North 420 483 17,200 -2,400 Descending Kansas City Center
03:42PM 37.8617 -90.2300 339° North 413 475 14,900 -2,280 Descending Kansas City Center
03:43PM 37.9647 -90.2842 337° Northwest 404 465 12,500 -1,500 Descending Kansas City Center
03:44PM 38.0597 -90.3325 338° Northwest 374 430 11,900 -660 Descending Kansas City Center
03:45PM 38.1372 -90.3733 337° Northwest 307 353 11,200 -900 Descending Kansas City Center
03:46PM 38.2072 -90.4094 338° Northwest 282 325 10,100 -1,260 Descending Kansas City Center
03:47PM 38.2942 -90.4558 337° Northwest 280 322 8,700 -1,260 Descending Kansas City Center
03:48PM 38.3614 -90.4914 337° Northwest 271 312 7,500 -1,560 Descending Kansas City Center
03:49PM 38.4317 -90.5103 348° North 259 298 5,500 -1,800 Descending Kansas City Center
03:50PM 38.5011 -90.5319 346° North 258 297 3,800 -1,200 Descending Kansas City Center
03:51PM 38.5531 -90.5503 345° North 216 249 3,100 -420 Descending Kansas City Center
03:52PM 38.6022 -90.5619 349° North 190 219 3,000 -540 Descending Kansas City Center
03:53PM 38.6467 -90.5717 350° North 174 200 2,100 -1,080 Descending Kansas City Center
03:54PM 38.6642 -90.6222 294° West 153 176 800 -780 Descending Kansas City Center
03:55PM 38.6578 -90.6653 259° West 145 167 500 -300 Descending Kansas City Center
03:57PM 38.6500 -90.6500 332° Northwest  Level FlightAware Approximate